sensor_id;sensor_type;location;lat;lon;timestamp;temperature;humidity
49238;DHT22;35069;47.906;1.892;2023-12-22T00:01:24;11.10;92.30
49238;DHT22;35069;47.906;1.892;2023-12-22T00:03:49;11.00;92.10
49238;DHT22;35069;47.906;1.892;2023-12-22T00:06:15;11.00;92.00
49238;DHT22;35069;47.906;1.892;2023-12-22T00:08:41;11.00;92.00
49238;DHT22;35069;47.906;1.892;2023-12-22T00:11:07;11.00;92.00
49238;DHT22;35069;47.906;1.892;2023-12-22T00:13:32;11.00;92.00
49238;DHT22;35069;47.906;1.892;2023-12-22T00:16:01;11.00;91.90
49238;DHT22;35069;47.906;1.892;2023-12-22T00:18:27;11.00;91.90
49238;DHT22;35069;47.906;1.892;2023-12-22T00:20:53;11.10;91.90
49238;DHT22;35069;47.906;1.892;2023-12-22T00:23:19;11.10;91.70
49238;DHT22;35069;47.906;1.892;2023-12-22T00:25:44;11.10;91.60
49238;DHT22;35069;47.906;1.892;2023-12-22T00:28:10;11.10;91.60
49238;DHT22;35069;47.906;1.892;2023-12-22T00:30:35;11.10;91.60
49238;DHT22;35069;47.906;1.892;2023-12-22T00:33:01;11.10;91.50
49238;DHT22;35069;47.906;1.892;2023-12-22T00:35:27;11.10;91.40
49238;DHT22;35069;47.906;1.892;2023-12-22T00:37:53;11.10;91.40
49238;DHT22;35069;47.906;1.892;2023-12-22T00:40:19;11.00;91.10
49238;DHT22;35069;47.906;1.892;2023-12-22T00:42:44;11.00;91.10
49238;DHT22;35069;47.906;1.892;2023-12-22T00:45:10;11.00;91.30
49238;DHT22;35069;47.906;1.892;2023-12-22T00:47:36;11.00;91.40
49238;DHT22;35069;47.906;1.892;2023-12-22T00:50:02;11.00;91.40
49238;DHT22;35069;47.906;1.892;2023-12-22T00:52:28;10.90;91.40
49238;DHT22;35069;47.906;1.892;2023-12-22T00:54:53;10.90;91.50
49238;DHT22;35069;47.906;1.892;2023-12-22T00:57:19;10.90;91.50
49238;DHT22;35069;47.906;1.892;2023-12-22T00:59:45;10.90;91.30
49238;DHT22;35069;47.906;1.892;2023-12-22T01:02:16;10.90;91.30
49238;DHT22;35069;47.906;1.892;2023-12-22T01:04:42;10.90;91.30
49238;DHT22;35069;47.906;1.892;2023-12-22T01:07:08;10.90;91.40
49238;DHT22;35069;47.906;1.892;2023-12-22T01:09:34;10.90;91.40
49238;DHT22;35069;47.906;1.892;2023-12-22T01:12:00;10.90;91.50
49238;DHT22;35069;47.906;1.892;2023-12-22T01:14:28;10.90;91.60
49238;DHT22;35069;47.906;1.892;2023-12-22T01:16:54;10.90;91.60
49238;DHT22;35069;47.906;1.892;2023-12-22T01:19:20;10.90;91.70
49238;DHT22;35069;47.906;1.892;2023-12-22T01:21:45;10.90;91.70
49238;DHT22;35069;47.906;1.892;2023-12-22T01:24:11;10.90;91.70
49238;DHT22;35069;47.906;1.892;2023-12-22T01:26:37;10.90;91.70
49238;DHT22;35069;47.906;1.892;2023-12-22T01:29:03;11.00;91.80
49238;DHT22;35069;47.906;1.892;2023-12-22T01:31:28;10.90;91.80
49238;DHT22;35069;47.906;1.892;2023-12-22T01:33:54;11.00;91.80
49238;DHT22;35069;47.906;1.892;2023-12-22T01:36:20;10.90;91.80
49238;DHT22;35069;47.906;1.892;2023-12-22T01:38:45;10.90;91.80
49238;DHT22;35069;47.906;1.892;2023-12-22T01:41:11;11.00;91.90
49238;DHT22;35069;47.906;1.892;2023-12-22T01:43:36;11.00;91.90
49238;DHT22;35069;47.906;1.892;2023-12-22T01:46:03;11.00;91.90
49238;DHT22;35069;47.906;1.892;2023-12-22T01:48:29;11.00;91.80
49238;DHT22;35069;47.906;1.892;2023-12-22T01:50:56;11.00;91.80
49238;DHT22;35069;47.906;1.892;2023-12-22T01:53:24;11.00;91.60
49238;DHT22;35069;47.906;1.892;2023-12-22T01:55:50;10.90;91.50
49238;DHT22;35069;47.906;1.892;2023-12-22T01:58:18;10.90;91.60
49238;DHT22;35069;47.906;1.892;2023-12-22T02:00:44;10.90;91.60
49238;DHT22;35069;47.906;1.892;2023-12-22T02:03:10;10.80;91.40
49238;DHT22;35069;47.906;1.892;2023-12-22T02:05:36;10.80;91.40
49238;DHT22;35069;47.906;1.892;2023-12-22T02:08:02;10.80;91.40
49238;DHT22;35069;47.906;1.892;2023-12-22T02:10:28;10.80;91.40
49238;DHT22;35069;47.906;1.892;2023-12-22T02:12:53;10.80;91.40
49238;DHT22;35069;47.906;1.892;2023-12-22T02:15:19;10.90;91.40
49238;DHT22;35069;47.906;1.892;2023-12-22T02:18:18;10.90;91.40
49238;DHT22;35069;47.906;1.892;2023-12-22T02:20:47;10.90;91.20
49238;DHT22;35069;47.906;1.892;2023-12-22T02:23:12;10.90;91.30
49238;DHT22;35069;47.906;1.892;2023-12-22T02:25:38;10.90;91.40
49238;DHT22;35069;47.906;1.892;2023-12-22T02:28:07;11.00;91.30
49238;DHT22;35069;47.906;1.892;2023-12-22T02:30:43;11.00;91.30
49238;DHT22;35069;47.906;1.892;2023-12-22T02:33:15;11.00;91.30
49238;DHT22;35069;47.906;1.892;2023-12-22T02:35:42;11.00;91.30
49238;DHT22;35069;47.906;1.892;2023-12-22T02:38:08;11.00;91.20
49238;DHT22;35069;47.906;1.892;2023-12-22T02:40:36;10.90;91.10
49238;DHT22;35069;47.906;1.892;2023-12-22T02:43:03;10.90;91.10
49238;DHT22;35069;47.906;1.892;2023-12-22T02:45:30;10.90;91.20
49238;DHT22;35069;47.906;1.892;2023-12-22T02:47:55;10.90;91.30
49238;DHT22;35069;47.906;1.892;2023-12-22T02:50:21;10.90;91.60
49238;DHT22;35069;47.906;1.892;2023-12-22T02:52:46;10.90;91.40
49238;DHT22;35069;47.906;1.892;2023-12-22T02:55:12;10.90;91.40
49238;DHT22;35069;47.906;1.892;2023-12-22T02:57:38;10.90;91.40
49238;DHT22;35069;47.906;1.892;2023-12-22T03:00:04;10.90;91.40
49238;DHT22;35069;47.906;1.892;2023-12-22T03:02:29;10.90;91.40
49238;DHT22;35069;47.906;1.892;2023-12-22T03:04:55;10.90;91.50
49238;DHT22;35069;47.906;1.892;2023-12-22T03:07:20;10.90;91.20
49238;DHT22;35069;47.906;1.892;2023-12-22T03:09:46;10.90;91.20
49238;DHT22;35069;47.906;1.892;2023-12-22T03:12:12;10.80;91.20
49238;DHT22;35069;47.906;1.892;2023-12-22T03:14:37;10.90;91.20
49238;DHT22;35069;47.906;1.892;2023-12-22T03:17:05;10.90;91.20
49238;DHT22;35069;47.906;1.892;2023-12-22T03:19:31;10.80;91.10
49238;DHT22;35069;47.906;1.892;2023-12-22T03:21:57;10.80;91.10
49238;DHT22;35069;47.906;1.892;2023-12-22T03:24:23;10.80;91.10
49238;DHT22;35069;47.906;1.892;2023-12-22T03:26:49;10.80;91.10
49238;DHT22;35069;47.906;1.892;2023-12-22T03:29:15;10.80;91.00
49238;DHT22;35069;47.906;1.892;2023-12-22T03:31:41;10.70;91.00
49238;DHT22;35069;47.906;1.892;2023-12-22T03:34:07;10.70;91.00
49238;DHT22;35069;47.906;1.892;2023-12-22T03:36:33;10.70;91.10
49238;DHT22;35069;47.906;1.892;2023-12-22T03:38:58;10.70;91.10
49238;DHT22;35069;47.906;1.892;2023-12-22T03:41:24;10.70;91.20
49238;DHT22;35069;47.906;1.892;2023-12-22T03:43:49;10.70;91.20
49238;DHT22;35069;47.906;1.892;2023-12-22T03:46:15;10.70;91.10
49238;DHT22;35069;47.906;1.892;2023-12-22T03:48:41;10.70;91.10
49238;DHT22;35069;47.906;1.892;2023-12-22T03:51:06;10.70;91.20
49238;DHT22;35069;47.906;1.892;2023-12-22T03:53:32;10.70;91.20
49238;DHT22;35069;47.906;1.892;2023-12-22T03:55:57;10.70;91.20
49238;DHT22;35069;47.906;1.892;2023-12-22T03:58:23;10.70;91.20
49238;DHT22;35069;47.906;1.892;2023-12-22T04:00:49;10.70;91.10
49238;DHT22;35069;47.906;1.892;2023-12-22T04:03:15;10.80;91.20
49238;DHT22;35069;47.906;1.892;2023-12-22T04:05:41;10.80;91.20
49238;DHT22;35069;47.906;1.892;2023-12-22T04:08:06;10.80;91.20
49238;DHT22;35069;47.906;1.892;2023-12-22T04:10:32;10.80;91.10
49238;DHT22;35069;47.906;1.892;2023-12-22T04:12:57;10.80;91.10
49238;DHT22;35069;47.906;1.892;2023-12-22T04:15:23;10.80;91.10
49238;DHT22;35069;47.906;1.892;2023-12-22T04:17:49;10.80;91.00
49238;DHT22;35069;47.906;1.892;2023-12-22T04:20:15;10.80;91.00
49238;DHT22;35069;47.906;1.892;2023-12-22T04:22:41;10.80;91.00
49238;DHT22;35069;47.906;1.892;2023-12-22T04:25:07;10.90;91.00
49238;DHT22;35069;47.906;1.892;2023-12-22T04:27:34;10.80;90.80
49238;DHT22;35069;47.906;1.892;2023-12-22T04:29:59;10.80;91.10
49238;DHT22;35069;47.906;1.892;2023-12-22T04:32:25;10.80;90.80
49238;DHT22;35069;47.906;1.892;2023-12-22T04:34:51;10.80;90.90
49238;DHT22;35069;47.906;1.892;2023-12-22T04:37:16;10.90;90.90
49238;DHT22;35069;47.906;1.892;2023-12-22T04:39:42;10.80;90.80
49238;DHT22;35069;47.906;1.892;2023-12-22T04:42:07;10.80;90.80
49238;DHT22;35069;47.906;1.892;2023-12-22T04:44:33;10.80;90.80
49238;DHT22;35069;47.906;1.892;2023-12-22T04:46:59;10.70;90.90
49238;DHT22;35069;47.906;1.892;2023-12-22T04:49:24;10.70;91.00
49238;DHT22;35069;47.906;1.892;2023-12-22T04:51:50;10.70;91.10
49238;DHT22;35069;47.906;1.892;2023-12-22T04:54:16;10.70;91.10
49238;DHT22;35069;47.906;1.892;2023-12-22T04:56:41;10.70;91.20
49238;DHT22;35069;47.906;1.892;2023-12-22T04:59:07;10.70;91.30
49238;DHT22;35069;47.906;1.892;2023-12-22T05:01:33;10.70;91.40
49238;DHT22;35069;47.906;1.892;2023-12-22T05:03:58;10.70;91.40
49238;DHT22;35069;47.906;1.892;2023-12-22T05:06:24;10.70;91.50
49238;DHT22;35069;47.906;1.892;2023-12-22T05:08:50;10.70;91.50
49238;DHT22;35069;47.906;1.892;2023-12-22T05:11:15;10.70;91.80
49238;DHT22;35069;47.906;1.892;2023-12-22T05:13:41;10.70;91.60
49238;DHT22;35069;47.906;1.892;2023-12-22T05:16:08;10.60;91.60
49238;DHT22;35069;47.906;1.892;2023-12-22T05:18:33;10.60;91.70
49238;DHT22;35069;47.906;1.892;2023-12-22T05:20:59;10.60;91.80
49238;DHT22;35069;47.906;1.892;2023-12-22T05:23:25;10.60;91.80
49238;DHT22;35069;47.906;1.892;2023-12-22T05:25:50;10.70;91.80
49238;DHT22;35069;47.906;1.892;2023-12-22T05:28:16;10.70;91.90
49238;DHT22;35069;47.906;1.892;2023-12-22T05:30:42;10.70;91.90
49238;DHT22;35069;47.906;1.892;2023-12-22T05:33:08;10.70;91.90
49238;DHT22;35069;47.906;1.892;2023-12-22T05:35:33;10.70;91.90
49238;DHT22;35069;47.906;1.892;2023-12-22T05:37:59;10.70;92.00
49238;DHT22;35069;47.906;1.892;2023-12-22T05:40:27;10.70;92.00
49238;DHT22;35069;47.906;1.892;2023-12-22T05:42:53;10.70;92.10
49238;DHT22;35069;47.906;1.892;2023-12-22T05:45:19;10.70;92.10
49238;DHT22;35069;47.906;1.892;2023-12-22T05:47:44;10.70;92.20
49238;DHT22;35069;47.906;1.892;2023-12-22T05:50:10;10.70;92.20
49238;DHT22;35069;47.906;1.892;2023-12-22T05:52:36;10.70;92.20
49238;DHT22;35069;47.906;1.892;2023-12-22T05:55:02;10.70;92.20
49238;DHT22;35069;47.906;1.892;2023-12-22T05:57:27;10.70;92.20
49238;DHT22;35069;47.906;1.892;2023-12-22T05:59:53;10.70;92.20
49238;DHT22;35069;47.906;1.892;2023-12-22T06:02:19;10.80;92.30
49238;DHT22;35069;47.906;1.892;2023-12-22T06:04:44;10.70;92.20
49238;DHT22;35069;47.906;1.892;2023-12-22T06:07:10;10.80;92.20
49238;DHT22;35069;47.906;1.892;2023-12-22T06:09:36;10.80;92.20
49238;DHT22;35069;47.906;1.892;2023-12-22T06:12:02;10.80;92.30
49238;DHT22;35069;47.906;1.892;2023-12-22T06:14:27;10.80;92.30
49238;DHT22;35069;47.906;1.892;2023-12-22T06:16:53;10.80;92.40
49238;DHT22;35069;47.906;1.892;2023-12-22T06:19:21;10.80;92.40
49238;DHT22;35069;47.906;1.892;2023-12-22T06:21:49;10.80;92.40
49238;DHT22;35069;47.906;1.892;2023-12-22T06:24:15;10.80;92.40
49238;DHT22;35069;47.906;1.892;2023-12-22T06:26:41;10.80;92.50
49238;DHT22;35069;47.906;1.892;2023-12-22T06:29:07;10.80;92.40
49238;DHT22;35069;47.906;1.892;2023-12-22T06:31:33;10.80;92.50
49238;DHT22;35069;47.906;1.892;2023-12-22T06:33:58;10.80;92.50
49238;DHT22;35069;47.906;1.892;2023-12-22T06:36:27;10.80;92.60
49238;DHT22;35069;47.906;1.892;2023-12-22T06:38:53;10.80;92.60
49238;DHT22;35069;47.906;1.892;2023-12-22T06:41:30;10.80;92.60
49238;DHT22;35069;47.906;1.892;2023-12-22T06:43:57;10.80;92.60
49238;DHT22;35069;47.906;1.892;2023-12-22T06:46:25;10.80;92.50
49238;DHT22;35069;47.906;1.892;2023-12-22T06:48:59;10.80;92.50
49238;DHT22;35069;47.906;1.892;2023-12-22T06:51:27;10.80;92.50
49238;DHT22;35069;47.906;1.892;2023-12-22T06:53:54;10.80;92.60
49238;DHT22;35069;47.906;1.892;2023-12-22T06:56:25;10.80;92.50
49238;DHT22;35069;47.906;1.892;2023-12-22T06:58:53;10.80;92.40
49238;DHT22;35069;47.906;1.892;2023-12-22T07:01:23;10.80;92.40
49238;DHT22;35069;47.906;1.892;2023-12-22T07:03:50;10.90;92.40
49238;DHT22;35069;47.906;1.892;2023-12-22T07:06:16;10.90;92.50
49238;DHT22;35069;47.906;1.892;2023-12-22T07:08:43;10.90;92.40
49238;DHT22;35069;47.906;1.892;2023-12-22T07:11:09;10.90;92.40
49238;DHT22;35069;47.906;1.892;2023-12-22T07:13:35;10.90;92.40
49238;DHT22;35069;47.906;1.892;2023-12-22T07:16:01;10.90;92.40
49238;DHT22;35069;47.906;1.892;2023-12-22T07:18:28;10.90;92.40
49238;DHT22;35069;47.906;1.892;2023-12-22T07:20:59;10.90;92.30
49238;DHT22;35069;47.906;1.892;2023-12-22T07:23:25;10.90;92.30
49238;DHT22;35069;47.906;1.892;2023-12-22T07:26:32;10.90;92.40
49238;DHT22;35069;47.906;1.892;2023-12-22T08:07:33;10.90;92.50
49238;DHT22;35069;47.906;1.892;2023-12-22T08:09:58;11.00;92.50
49238;DHT22;35069;47.906;1.892;2023-12-22T08:12:24;11.00;92.40
49238;DHT22;35069;47.906;1.892;2023-12-22T08:14:50;11.00;92.40
49238;DHT22;35069;47.906;1.892;2023-12-22T08:17:15;11.00;92.40
49238;DHT22;35069;47.906;1.892;2023-12-22T08:19:41;11.00;92.30
49238;DHT22;35069;47.906;1.892;2023-12-22T08:22:10;11.00;92.30
49238;DHT22;35069;47.906;1.892;2023-12-22T08:24:36;11.00;92.20
49238;DHT22;35069;47.906;1.892;2023-12-22T08:27:02;11.10;92.30
49238;DHT22;35069;47.906;1.892;2023-12-22T08:29:27;11.10;92.30
49238;DHT22;35069;47.906;1.892;2023-12-22T08:31:54;11.10;92.30
49238;DHT22;35069;47.906;1.892;2023-12-22T08:34:20;11.20;92.20
49238;DHT22;35069;47.906;1.892;2023-12-22T08:36:45;11.20;92.20
49238;DHT22;35069;47.906;1.892;2023-12-22T08:39:11;11.20;92.20
49238;DHT22;35069;47.906;1.892;2023-12-22T08:41:37;11.30;92.10
49238;DHT22;35069;47.906;1.892;2023-12-22T08:44:05;11.30;92.00
49238;DHT22;35069;47.906;1.892;2023-12-22T08:46:31;11.30;91.90
49238;DHT22;35069;47.906;1.892;2023-12-22T08:48:57;11.30;92.00
49238;DHT22;35069;47.906;1.892;2023-12-22T08:51:25;11.30;91.90
49238;DHT22;35069;47.906;1.892;2023-12-22T08:53:50;11.30;92.00
49238;DHT22;35069;47.906;1.892;2023-12-22T08:56:18;11.40;92.00
49238;DHT22;35069;47.906;1.892;2023-12-22T08:58:43;11.40;92.00
49238;DHT22;35069;47.906;1.892;2023-12-22T09:01:18;11.40;92.00
49238;DHT22;35069;47.906;1.892;2023-12-22T09:03:44;11.40;92.00
49238;DHT22;35069;47.906;1.892;2023-12-22T09:06:15;11.50;92.00
49238;DHT22;35069;47.906;1.892;2023-12-22T09:08:44;11.50;92.10
49238;DHT22;35069;47.906;1.892;2023-12-22T09:11:12;11.50;91.90
49238;DHT22;35069;47.906;1.892;2023-12-22T09:13:38;11.50;92.00
49238;DHT22;35069;47.906;1.892;2023-12-22T09:16:04;11.50;92.00
49238;DHT22;35069;47.906;1.892;2023-12-22T09:18:33;11.60;92.00
49238;DHT22;35069;47.906;1.892;2023-12-22T09:20:59;11.60;91.90
49238;DHT22;35069;47.906;1.892;2023-12-22T09:23:27;11.80;92.10
49238;DHT22;35069;47.906;1.892;2023-12-22T09:25:52;11.90;92.00
49238;DHT22;35069;47.906;1.892;2023-12-22T09:28:18;11.80;91.50
49238;DHT22;35069;47.906;1.892;2023-12-22T09:30:44;11.80;91.60
49238;DHT22;35069;47.906;1.892;2023-12-22T09:33:10;11.80;91.50
49238;DHT22;35069;47.906;1.892;2023-12-22T09:35:36;11.90;91.50
49238;DHT22;35069;47.906;1.892;2023-12-22T09:38:02;12.00;91.60
49238;DHT22;35069;47.906;1.892;2023-12-22T09:40:28;12.10;91.60
49238;DHT22;35069;47.906;1.892;2023-12-22T09:42:58;12.20;91.40
49238;DHT22;35069;47.906;1.892;2023-12-22T09:45:24;12.20;91.30
49238;DHT22;35069;47.906;1.892;2023-12-22T09:47:50;12.10;91.10
49238;DHT22;35069;47.906;1.892;2023-12-22T09:50:17;12.10;91.00
49238;DHT22;35069;47.906;1.892;2023-12-22T09:52:43;12.20;91.10
49238;DHT22;35069;47.906;1.892;2023-12-22T09:55:15;12.20;90.90
49238;DHT22;35069;47.906;1.892;2023-12-22T09:57:42;12.50;91.20
49238;DHT22;35069;47.906;1.892;2023-12-22T10:00:09;12.50;90.90
49238;DHT22;35069;47.906;1.892;2023-12-22T10:02:36;12.60;90.70
49238;DHT22;35069;47.906;1.892;2023-12-22T10:05:02;12.70;90.60
49238;DHT22;35069;47.906;1.892;2023-12-22T10:07:30;12.90;90.60
49238;DHT22;35069;47.906;1.892;2023-12-22T10:09:56;13.30;90.70
49238;DHT22;35069;47.906;1.892;2023-12-22T10:12:23;13.70;90.80
49238;DHT22;35069;47.906;1.892;2023-12-22T10:14:49;13.70;89.50
49238;DHT22;35069;47.906;1.892;2023-12-22T10:17:17;13.60;88.20
49238;DHT22;35069;47.906;1.892;2023-12-22T10:19:43;13.60;88.20
49238;DHT22;35069;47.906;1.892;2023-12-22T10:22:08;13.60;87.80
49238;DHT22;35069;47.906;1.892;2023-12-22T10:24:40;13.60;87.10
49238;DHT22;35069;47.906;1.892;2023-12-22T10:27:12;13.70;87.70
49238;DHT22;35069;47.906;1.892;2023-12-22T10:29:38;13.80;87.00
49238;DHT22;35069;47.906;1.892;2023-12-22T10:32:05;13.90;87.00
49238;DHT22;35069;47.906;1.892;2023-12-22T10:34:31;14.00;87.10
49238;DHT22;35069;47.906;1.892;2023-12-22T10:36:59;14.20;86.20
49238;DHT22;35069;47.906;1.892;2023-12-22T10:39:31;14.80;87.00
49238;DHT22;35069;47.906;1.892;2023-12-22T10:41:58;14.60;82.20
49238;DHT22;35069;47.906;1.892;2023-12-22T10:44:27;14.40;84.30
49238;DHT22;35069;47.906;1.892;2023-12-22T10:46:53;14.40;84.00
49238;DHT22;35069;47.906;1.892;2023-12-22T10:49:20;14.60;84.80
49238;DHT22;35069;47.906;1.892;2023-12-22T10:51:46;16.00;86.30
49238;DHT22;35069;47.906;1.892;2023-12-22T10:54:12;16.40;84.50
49238;DHT22;35069;47.906;1.892;2023-12-22T10:56:39;16.00;81.90
49238;DHT22;35069;47.906;1.892;2023-12-22T10:59:05;15.40;80.70
49238;DHT22;35069;47.906;1.892;2023-12-22T11:01:32;14.90;80.90
49238;DHT22;35069;47.906;1.892;2023-12-22T11:04:09;14.50;80.90
49238;DHT22;35069;47.906;1.892;2023-12-22T11:06:41;14.10;81.00
49238;DHT22;35069;47.906;1.892;2023-12-22T11:09:09;14.10;82.10
49238;DHT22;35069;47.906;1.892;2023-12-22T11:11:37;14.30;82.40
49238;DHT22;35069;47.906;1.892;2023-12-22T11:14:04;14.50;82.30
49238;DHT22;35069;47.906;1.892;2023-12-22T11:16:31;15.10;83.50
49238;DHT22;35069;47.906;1.892;2023-12-22T11:19:02;15.00;81.60
49238;DHT22;35069;47.906;1.892;2023-12-22T11:21:28;14.60;80.40
49238;DHT22;35069;47.906;1.892;2023-12-22T11:23:55;14.30;80.60
49238;DHT22;35069;47.906;1.892;2023-12-22T11:26:22;14.00;80.40
49238;DHT22;35069;47.906;1.892;2023-12-22T11:28:48;13.70;80.50
49238;DHT22;35069;47.906;1.892;2023-12-22T11:31:15;13.40;81.10
49238;DHT22;35069;47.906;1.892;2023-12-22T11:33:45;13.20;81.90
49238;DHT22;35069;47.906;1.892;2023-12-22T11:36:15;13.10;82.50
49238;DHT22;35069;47.906;1.892;2023-12-22T11:38:42;13.00;82.80
49238;DHT22;35069;47.906;1.892;2023-12-22T11:41:21;12.80;83.00
49238;DHT22;35069;47.906;1.892;2023-12-22T11:43:48;12.80;83.40
49238;DHT22;35069;47.906;1.892;2023-12-22T11:46:18;12.90;83.10
49238;DHT22;35069;47.906;1.892;2023-12-22T11:48:51;12.90;82.50
49238;DHT22;35069;47.906;1.892;2023-12-22T11:51:18;13.00;81.80
49238;DHT22;35069;47.906;1.892;2023-12-22T11:53:44;13.10;82.20
49238;DHT22;35069;47.906;1.892;2023-12-22T11:56:11;13.00;81.20
49238;DHT22;35069;47.906;1.892;2023-12-22T11:58:46;12.90;80.10
49238;DHT22;35069;47.906;1.892;2023-12-22T12:01:17;12.90;79.50
49238;DHT22;35069;47.906;1.892;2023-12-22T12:06:16;12.90;79.50
49238;DHT22;35069;47.906;1.892;2023-12-22T12:08:44;12.90;79.60
49238;DHT22;35069;47.906;1.892;2023-12-22T12:11:10;12.80;78.90
49238;DHT22;35069;47.906;1.892;2023-12-22T12:13:43;12.80;78.40
49238;DHT22;35069;47.906;1.892;2023-12-22T12:16:11;12.70;78.20
49238;DHT22;35069;47.906;1.892;2023-12-22T12:25:01;12.70;78.40
49238;DHT22;35069;47.906;1.892;2023-12-22T12:27:44;12.70;74.90
49238;DHT22;35069;47.906;1.892;2023-12-22T12:30:14;12.70;77.80
49238;DHT22;35069;47.906;1.892;2023-12-22T12:41:04;13.00;78.00
49238;DHT22;35069;47.906;1.892;2023-12-22T12:43:31;13.10;77.40
49238;DHT22;35069;47.906;1.892;2023-12-22T12:46:04;13.10;77.00
49238;DHT22;35069;47.906;1.892;2023-12-22T12:48:30;13.10;76.90
49238;DHT22;35069;47.906;1.892;2023-12-22T12:50:55;13.00;76.90
49238;DHT22;35069;47.906;1.892;2023-12-22T12:53:26;13.10;76.70
49238;DHT22;35069;47.906;1.892;2023-12-22T12:55:55;13.20;76.70
49238;DHT22;35069;47.906;1.892;2023-12-22T12:58:21;13.30;75.90
49238;DHT22;35069;47.906;1.892;2023-12-22T13:00:52;13.30;76.10
49238;DHT22;35069;47.906;1.892;2023-12-22T13:03:21;13.40;76.00
49238;DHT22;35069;47.906;1.892;2023-12-22T13:05:48;13.50;76.10
49238;DHT22;35069;47.906;1.892;2023-12-22T13:08:13;13.60;75.80
49238;DHT22;35069;47.906;1.892;2023-12-22T13:10:40;13.50;74.70
49238;DHT22;35069;47.906;1.892;2023-12-22T13:13:06;13.40;74.90
49238;DHT22;35069;47.906;1.892;2023-12-22T13:15:32;13.20;74.90
49238;DHT22;35069;47.906;1.892;2023-12-22T13:17:58;13.10;75.20
49238;DHT22;35069;47.906;1.892;2023-12-22T13:20:24;13.00;75.20
49238;DHT22;35069;47.906;1.892;2023-12-22T13:22:49;12.90;75.30
49238;DHT22;35069;47.906;1.892;2023-12-22T13:25:15;12.90;75.40
49238;DHT22;35069;47.906;1.892;2023-12-22T13:27:48;12.90;76.00
49238;DHT22;35069;47.906;1.892;2023-12-22T13:30:33;12.90;75.30
49238;DHT22;35069;47.906;1.892;2023-12-22T13:32:59;12.90;74.40
49238;DHT22;35069;47.906;1.892;2023-12-22T13:35:25;12.80;75.70
49238;DHT22;35069;47.906;1.892;2023-12-22T13:37:52;12.80;76.30
49238;DHT22;35069;47.906;1.892;2023-12-22T13:40:18;12.70;76.00
49238;DHT22;35069;47.906;1.892;2023-12-22T13:42:44;12.60;76.00
49238;DHT22;35069;47.906;1.892;2023-12-22T13:45:13;12.60;76.20
49238;DHT22;35069;47.906;1.892;2023-12-22T13:47:44;12.50;76.30
49238;DHT22;35069;47.906;1.892;2023-12-22T13:50:16;12.40;76.60
49238;DHT22;35069;47.906;1.892;2023-12-22T13:52:42;12.30;76.90
49238;DHT22;35069;47.906;1.892;2023-12-22T13:55:11;12.30;77.80
49238;DHT22;35069;47.906;1.892;2023-12-22T13:57:37;12.30;77.50
49238;DHT22;35069;47.906;1.892;2023-12-22T14:00:24;12.40;77.80
49238;DHT22;35069;47.906;1.892;2023-12-22T14:02:49;12.40;77.90
49238;DHT22;35069;47.906;1.892;2023-12-22T14:05:15;12.30;77.70
49238;DHT22;35069;47.906;1.892;2023-12-22T14:07:42;12.30;77.60
49238;DHT22;35069;47.906;1.892;2023-12-22T14:10:08;12.20;77.50
49238;DHT22;35069;47.906;1.892;2023-12-22T14:12:36;12.20;77.60
49238;DHT22;35069;47.906;1.892;2023-12-22T14:15:12;12.10;77.60
49238;DHT22;35069;47.906;1.892;2023-12-22T14:17:39;12.20;77.90
49238;DHT22;35069;47.906;1.892;2023-12-22T14:20:07;12.10;78.40
49238;DHT22;35069;47.906;1.892;2023-12-22T14:22:35;12.20;78.00
49238;DHT22;35069;47.906;1.892;2023-12-22T14:25:01;12.20;77.50
49238;DHT22;35069;47.906;1.892;2023-12-22T14:27:27;12.20;77.30
49238;DHT22;35069;47.906;1.892;2023-12-22T14:29:53;12.20;77.10
49238;DHT22;35069;47.906;1.892;2023-12-22T14:32:18;12.20;76.80
49238;DHT22;35069;47.906;1.892;2023-12-22T14:34:45;12.20;76.80
49238;DHT22;35069;47.906;1.892;2023-12-22T14:37:10;12.20;76.80
49238;DHT22;35069;47.906;1.892;2023-12-22T14:39:36;12.20;76.50
49238;DHT22;35069;47.906;1.892;2023-12-22T14:42:02;12.10;76.50
49238;DHT22;35069;47.906;1.892;2023-12-22T14:44:30;12.10;76.60
49238;DHT22;35069;47.906;1.892;2023-12-22T14:46:56;12.10;76.50
49238;DHT22;35069;47.906;1.892;2023-12-22T14:49:22;12.10;76.70
49238;DHT22;35069;47.906;1.892;2023-12-22T14:51:47;12.10;76.80
49238;DHT22;35069;47.906;1.892;2023-12-22T14:54:19;12.10;76.60
49238;DHT22;35069;47.906;1.892;2023-12-22T14:56:46;12.10;76.60
49238;DHT22;35069;47.906;1.892;2023-12-22T14:59:12;12.10;76.70
49238;DHT22;35069;47.906;1.892;2023-12-22T15:01:40;12.00;76.60
49238;DHT22;35069;47.906;1.892;2023-12-22T15:04:06;12.00;76.80
49238;DHT22;35069;47.906;1.892;2023-12-22T15:06:32;12.00;76.80
49238;DHT22;35069;47.906;1.892;2023-12-22T15:08:58;12.00;76.90
49238;DHT22;35069;47.906;1.892;2023-12-22T15:11:26;12.00;77.10
49238;DHT22;35069;47.906;1.892;2023-12-22T15:13:52;12.00;77.20
49238;DHT22;35069;47.906;1.892;2023-12-22T15:16:17;12.00;77.30
49238;DHT22;35069;47.906;1.892;2023-12-22T15:18:43;11.90;77.30
49238;DHT22;35069;47.906;1.892;2023-12-22T15:21:08;11.90;77.40
49238;DHT22;35069;47.906;1.892;2023-12-22T15:23:34;11.90;77.60
49238;DHT22;35069;47.906;1.892;2023-12-22T15:26:00;11.80;77.60
49238;DHT22;35069;47.906;1.892;2023-12-22T15:28:25;11.80;77.80
49238;DHT22;35069;47.906;1.892;2023-12-22T15:30:51;11.80;78.00
49238;DHT22;35069;47.906;1.892;2023-12-22T15:33:18;11.80;78.20
49238;DHT22;35069;47.906;1.892;2023-12-22T15:35:43;11.80;78.30
49238;DHT22;35069;47.906;1.892;2023-12-22T15:38:09;11.80;78.50
49238;DHT22;35069;47.906;1.892;2023-12-22T15:40:36;11.80;78.70
49238;DHT22;35069;47.906;1.892;2023-12-22T15:43:02;11.80;78.80
49238;DHT22;35069;47.906;1.892;2023-12-22T15:45:27;11.80;79.00
49238;DHT22;35069;47.906;1.892;2023-12-22T15:47:53;11.80;79.20
49238;DHT22;35069;47.906;1.892;2023-12-22T15:50:18;11.80;79.30
49238;DHT22;35069;47.906;1.892;2023-12-22T15:52:44;11.80;79.60
49238;DHT22;35069;47.906;1.892;2023-12-22T15:55:09;11.70;79.70
49238;DHT22;35069;47.906;1.892;2023-12-22T15:57:36;11.70;79.80
49238;DHT22;35069;47.906;1.892;2023-12-22T16:00:05;11.70;79.90
49238;DHT22;35069;47.906;1.892;2023-12-22T16:02:30;11.70;80.00
49238;DHT22;35069;47.906;1.892;2023-12-22T16:04:56;11.60;80.00
49238;DHT22;35069;47.906;1.892;2023-12-22T16:07:22;11.60;80.10
49238;DHT22;35069;47.906;1.892;2023-12-22T16:09:49;11.60;80.20
49238;DHT22;35069;47.906;1.892;2023-12-22T16:12:15;11.60;80.10
49238;DHT22;35069;47.906;1.892;2023-12-22T16:14:40;11.60;80.10
49238;DHT22;35069;47.906;1.892;2023-12-22T16:17:06;11.50;79.90
49238;DHT22;35069;47.906;1.892;2023-12-22T16:19:32;11.50;80.00
49238;DHT22;35069;47.906;1.892;2023-12-22T16:21:57;11.50;79.90
49238;DHT22;35069;47.906;1.892;2023-12-22T16:24:23;11.50;79.90